Station: Neuburg / Donau, ICAO: ETSN, Synop: Synop: 10853,
Koordinaten: 4843'00''N 01113'00''E, Hoehe: 380m, Entfernung: 11.98km
2017/12/15 04:20
ETSN 150420Z 25018G28KT 9999 FEW020 BKN150 04/00 Q0995 BLU


Station: Ingolstadt, ICAO: ETSI, Synop: Synop: 10860,
Koordinaten: 4843'00''N 01132'00''E, Hoehe: 367m, Entfernung: 20.66km
2017/12/15 04:20
ETSI 150420Z 25015KT 9999 BKN027 04/01 Q0995 BLU


Station: Roth, ICAO: ETHR, Synop: Synop: 10765,
Koordinaten: 4913'00''N 01106'00''E, Hoehe: 388m, Entfernung: 47.03km
2013/12/05 06:53
ETHR 050653Z 25004KT 1200 BR OVC003 02/02 Q1027 AMB


Station: Augsburg, ICAO: EDMA, Synop: Synop: 10852,
Koordinaten: 4826'00''N 01056'00''E, Hoehe: 461m, Entfernung: 49.68km
2017/12/15 04:20
EDMA 150420Z AUTO 24015KT 9999 // BKN160/// 03/M00 Q0995


Station: HOHENFELS (USAF), ICAO: EDIH, Synop: Synop: 10775,
Koordinaten: 49 13 N 011 49 E, Hoehe: 442m, Entfernung: 59.00km


Station: Hohenfels, ICAO: ETIH, Synop: Synop: 10775,
Koordinaten: 4913'00''N 01150'00''E, Hoehe: 442m, Entfernung: 59.79km
2017/12/15 03:56
ETIH 150356Z AUTO 22007G19KT 9999 -RA OVC012 04/03 A2934 RMK AO2 RAB49 SLP953 P0000 T00360027 $


mehr Wetter
WetterInfo - adds.pl 2.6.003 DL3EL © 2004-2017 [154942]